createdAt,value
2022-11-23T00:00:03.283Z,2.28
2022-11-23T00:02:36.871Z,2.00
2022-11-23T00:05:09.005Z,1.90
2022-11-23T00:07:41.054Z,2.03
2022-11-23T00:10:13.402Z,2.08
2022-11-23T00:12:45.678Z,1.80
2022-11-23T00:15:17.713Z,1.52
2022-11-23T00:17:49.641Z,1.65
2022-11-23T00:20:21.550Z,1.90
2022-11-23T00:22:53.571Z,2.05
2022-11-23T00:25:25.536Z,1.88
2022-11-23T00:27:57.514Z,1.85
2022-11-23T00:30:29.480Z,1.70
2022-11-23T00:33:01.403Z,1.85
2022-11-23T00:35:36.012Z,1.50
2022-11-23T00:38:07.988Z,1.60
2022-11-23T00:40:39.984Z,1.65
2022-11-23T00:43:11.845Z,1.42
2022-11-23T00:45:43.770Z,1.70
2022-11-23T00:48:15.657Z,1.50
2022-11-23T00:50:47.497Z,1.40
2022-11-23T00:53:19.329Z,1.20
2022-11-23T00:55:52.842Z,1.00
2022-11-23T00:58:25.697Z,1.10
2022-11-23T01:01:12.999Z,1.33
2022-11-23T01:03:48.686Z,1.20
2022-11-23T01:06:23.293Z,1.38
2022-11-23T01:09:11.821Z,1.10
2022-11-23T01:11:44.485Z,1.50
2022-11-23T01:14:17.349Z,1.40
2022-11-23T01:16:49.496Z,1.60
2022-11-23T01:19:21.917Z,1.58
2022-11-23T01:21:54.537Z,1.38
2022-11-23T01:24:29.538Z,1.15
2022-11-23T01:27:01.477Z,1.13
2022-11-23T01:29:34.007Z,1.30
2022-11-23T01:32:06.636Z,1.15
2022-11-23T01:34:38.575Z,1.25
2022-11-23T01:37:10.615Z,1.30
2022-11-23T01:39:42.541Z,1.25
2022-11-23T01:42:17.893Z,1.17
2022-11-23T01:44:51.908Z,1.52
2022-11-23T01:47:23.796Z,1.17
2022-11-23T01:50:21.954Z,1.17
2022-11-23T01:53:21.561Z,1.20
2022-11-23T01:56:03.276Z,1.30
2022-11-23T01:58:38.333Z,1.15
2022-11-23T02:01:10.436Z,1.20
2022-11-23T02:03:44.732Z,1.15
2022-11-23T02:06:21.302Z,1.10
2022-11-23T02:08:53.670Z,1.20
2022-11-23T02:11:25.693Z,1.15
2022-11-23T02:13:57.672Z,1.30
2022-11-23T02:16:30.162Z,1.30
2022-11-23T02:19:02.089Z,1.33
2022-11-23T02:21:34.102Z,1.05
2022-11-23T02:24:19.589Z,1.35
2022-11-23T02:26:52.329Z,1.50
2022-11-23T02:29:26.257Z,1.40
2022-11-23T02:31:58.167Z,1.30
2022-11-23T02:34:30.986Z,1.63
2022-11-23T02:37:04.910Z,1.40
2022-11-23T02:39:40.439Z,1.35
2022-11-23T02:42:13.521Z,1.10
2022-11-23T02:44:48.509Z,1.15
2022-11-23T02:47:20.463Z,0.90
2022-11-23T02:49:52.371Z,1.00
2022-11-23T02:52:24.390Z,1.20
2022-11-23T02:54:56.275Z,1.05
2022-11-23T02:57:28.271Z,1.00
2022-11-23T03:00:00.162Z,0.90
2022-11-23T03:02:32.169Z,0.70
2022-11-23T03:05:04.231Z,1.00
2022-11-23T03:07:36.275Z,0.90
2022-11-23T03:10:09.083Z,0.90
2022-11-23T03:12:41.064Z,0.95
2022-11-23T03:15:13.267Z,0.90
2022-11-23T03:17:46.178Z,0.90
2022-11-23T03:20:19.818Z,1.00
2022-11-23T03:22:55.053Z,1.00
2022-11-23T03:25:29.072Z,0.95
2022-11-23T03:28:03.452Z,0.93
2022-11-23T03:30:35.656Z,1.10
2022-11-23T03:33:10.433Z,1.00
2022-11-23T03:35:43.074Z,1.15
2022-11-23T03:38:23.084Z,1.00
2022-11-23T03:40:55.221Z,1.13
2022-11-23T03:43:49.971Z,1.40
2022-11-23T03:46:22.988Z,0.85
2022-11-23T03:48:54.852Z,0.90
2022-11-23T03:51:26.794Z,0.80
2022-11-23T03:53:59.950Z,2.15
2022-11-23T03:56:33.432Z,0.90
2022-11-23T03:59:06.228Z,0.98
2022-11-23T04:01:38.202Z,0.82
2022-11-23T04:04:14.269Z,0.98
2022-11-23T04:07:07.832Z,0.90
2022-11-23T04:09:47.161Z,0.80
2022-11-23T04:12:34.509Z,1.10
2022-11-23T04:15:06.967Z,0.90
2022-11-23T04:17:40.384Z,1.23
2022-11-23T04:20:13.482Z,1.05
2022-11-23T04:22:45.558Z,1.35
2022-11-23T04:25:17.931Z,1.23
2022-11-23T04:27:51.813Z,1.13
2022-11-23T04:30:24.274Z,1.35
2022-11-23T04:32:58.700Z,1.23
2022-11-23T04:35:31.649Z,1.45
2022-11-23T04:38:04.041Z,1.30
2022-11-23T04:40:37.174Z,1.58
2022-11-23T04:43:11.519Z,1.00
2022-11-23T04:45:45.122Z,1.00
2022-11-23T04:48:27.973Z,1.45
2022-11-23T04:51:01.517Z,1.30
2022-11-23T04:53:40.240Z,1.10
2022-11-23T04:56:12.755Z,1.30
2022-11-23T04:58:46.366Z,1.10
2022-11-23T05:01:18.271Z,1.30
2022-11-23T05:04:22.030Z,1.30
2022-11-23T05:06:54.955Z,1.25
2022-11-23T05:09:28.205Z,1.15
2022-11-23T05:12:16.965Z,1.30
2022-11-23T05:14:49.487Z,1.30
2022-11-23T05:17:27.713Z,1.33
2022-11-23T05:20:00.780Z,2.10
2022-11-23T05:22:35.500Z,1.10
2022-11-23T05:25:09.473Z,1.42
2022-11-23T05:27:46.222Z,1.20
2022-11-23T05:30:20.311Z,1.30
2022-11-23T05:32:52.349Z,1.67
2022-11-23T05:35:25.894Z,1.60
2022-11-23T05:37:58.292Z,1.75
2022-11-23T05:40:31.576Z,2.20
2022-11-23T05:43:05.806Z,2.13
2022-11-23T05:45:37.878Z,2.22
2022-11-23T05:48:10.516Z,1.88
2022-11-23T05:51:11.384Z,2.13
2022-11-23T05:53:49.240Z,2.50
2022-11-23T05:56:44.793Z,3.13
2022-11-23T05:59:20.305Z,3.50
2022-11-23T06:01:57.377Z,4.38
2022-11-23T06:04:34.974Z,3.38
2022-11-23T06:07:07.322Z,2.30
2022-11-23T06:09:59.402Z,3.50
2022-11-23T06:12:32.012Z,2.22
2022-11-23T06:15:05.952Z,2.20
2022-11-23T06:17:38.814Z,2.50
2022-11-23T06:20:15.037Z,2.42
2022-11-23T06:22:54.957Z,2.60
2022-11-23T06:25:30.133Z,2.80
2022-11-23T06:28:25.281Z,3.78
2022-11-23T06:31:04.360Z,3.88
2022-11-23T06:33:38.122Z,4.18
2022-11-23T06:36:11.252Z,2.60
2022-11-23T06:38:49.346Z,2.50
2022-11-23T06:41:31.033Z,2.83
2022-11-23T06:44:05.670Z,2.72
2022-11-23T06:46:45.229Z,3.35
2022-11-23T06:49:19.452Z,3.95
2022-11-23T06:52:00.927Z,3.53
2022-11-23T06:54:33.104Z,3.78
2022-11-23T06:57:09.697Z,3.35
2022-11-23T06:59:44.810Z,3.42
2022-11-23T07:02:19.164Z,3.20
2022-11-23T07:04:53.000Z,3.20
2022-11-23T07:07:25.331Z,3.10
2022-11-23T07:10:07.595Z,3.03
2022-11-23T07:12:55.334Z,3.17
2022-11-23T07:15:28.655Z,3.33
2022-11-23T07:18:00.712Z,3.10
2022-11-23T07:20:33.300Z,3.05
2022-11-23T07:23:08.195Z,2.78
2022-11-23T07:25:40.282Z,3.10
2022-11-23T07:28:13.286Z,2.97
2022-11-23T07:30:45.448Z,3.60
2022-11-23T07:33:18.543Z,3.67
2022-11-23T07:35:51.715Z,3.40
2022-11-23T07:38:23.629Z,3.30
2022-11-23T07:40:56.020Z,3.95
2022-11-23T07:43:46.887Z,4.00
2022-11-23T07:46:19.328Z,4.75
2022-11-23T07:48:51.294Z,4.00
2022-11-23T07:51:23.217Z,3.38
2022-11-23T07:53:55.149Z,3.25
2022-11-23T07:56:27.098Z,3.47
2022-11-23T07:58:59.091Z,5.53
2022-11-23T08:01:31.663Z,3.97
2022-11-23T08:04:03.631Z,4.05
2022-11-23T08:06:35.533Z,3.40
2022-11-23T08:09:07.527Z,3.58
2022-11-23T08:11:39.476Z,3.47
2022-11-23T08:14:11.914Z,4.10
2022-11-23T08:16:43.929Z,3.95
2022-11-23T08:19:16.141Z,4.05
2022-11-23T08:21:48.120Z,3.85
2022-11-23T08:24:20.247Z,4.55
2022-11-23T08:26:52.183Z,4.10
2022-11-23T08:29:24.252Z,4.10
2022-11-23T08:31:56.387Z,4.70
2022-11-23T08:34:28.370Z,4.07
2022-11-23T08:37:00.397Z,4.80
2022-11-23T08:39:32.445Z,4.63
2022-11-23T08:42:04.608Z,4.72
2022-11-23T08:44:36.597Z,5.00
2022-11-23T08:47:08.593Z,5.00
2022-11-23T08:49:40.593Z,5.65
2022-11-23T08:52:12.527Z,4.72
2022-11-23T08:54:44.425Z,4.70
2022-11-23T08:57:16.458Z,4.38
2022-11-23T08:59:48.382Z,4.40
2022-11-23T09:02:20.273Z,5.40
2022-11-23T09:04:52.300Z,5.30
2022-11-23T09:07:24.560Z,5.32
2022-11-23T09:09:56.423Z,5.65
2022-11-23T09:12:28.381Z,5.00
2022-11-23T09:15:00.382Z,4.30
2022-11-23T09:17:33.128Z,3.10
2022-11-23T09:20:05.789Z,3.60
2022-11-23T09:22:38.017Z,3.30
2022-11-23T09:25:10.454Z,3.05
2022-11-23T09:27:42.385Z,2.33
2022-11-23T09:30:15.183Z,2.38
2022-11-23T09:32:47.347Z,2.10
2022-11-23T09:35:19.215Z,2.95
2022-11-23T09:37:58.446Z,2.60
2022-11-23T09:40:39.249Z,2.60
2022-11-23T09:43:29.633Z,2.17
2022-11-23T09:46:36.826Z,1.95
2022-11-23T09:49:21.688Z,1.70
2022-11-23T09:51:55.834Z,2.33
2022-11-23T09:54:36.685Z,2.13
2022-11-23T09:57:14.718Z,2.45
2022-11-23T09:59:57.589Z,2.83
2022-11-23T10:02:30.932Z,2.33
2022-11-23T10:05:04.848Z,2.30
2022-11-23T10:08:14.745Z,2.13
2022-11-23T10:10:54.539Z,3.72
2022-11-23T10:13:41.192Z,4.15
2022-11-23T10:16:46.845Z,3.13
2022-11-23T10:19:35.764Z,3.30
2022-11-23T10:22:20.271Z,3.70
2022-11-23T10:24:53.722Z,2.70
2022-11-23T10:27:25.759Z,3.20
2022-11-23T10:29:59.299Z,2.40
2022-11-23T10:32:56.993Z,2.10
2022-11-23T10:35:33.195Z,2.70
2022-11-23T10:38:20.796Z,2.08
2022-11-23T10:41:09.403Z,1.90
2022-11-23T10:43:55.901Z,1.65
2022-11-23T10:46:33.968Z,1.65
2022-11-23T10:49:23.815Z,1.30
2022-11-23T10:52:18.205Z,1.23
2022-11-23T10:54:54.351Z,1.30
2022-11-23T10:57:42.576Z,2.03
2022-11-23T11:00:21.518Z,1.70
2022-11-23T11:02:59.216Z,1.88
2022-11-23T11:08:50.386Z,2.38
2022-11-23T11:11:34.209Z,2.20
2022-11-23T11:14:23.519Z,2.30
2022-11-23T11:16:57.980Z,4.00
2022-11-23T11:19:35.688Z,3.17
2022-11-23T11:22:27.358Z,2.80
2022-11-23T11:24:59.470Z,2.80
2022-11-23T11:27:32.563Z,6.70
2022-11-23T11:30:07.864Z,4.88
2022-11-23T11:32:45.113Z,2.70
2022-11-23T11:35:31.588Z,3.15
2022-11-23T11:38:12.935Z,3.30
2022-11-23T11:43:36.205Z,3.15
2022-11-23T11:46:30.748Z,2.83
2022-11-23T11:49:12.740Z,3.05
2022-11-23T11:51:50.118Z,3.70
2022-11-23T11:54:37.169Z,2.55
2022-11-23T11:57:21.585Z,3.00
2022-11-23T12:00:05.451Z,2.20
2022-11-23T12:02:50.228Z,3.22
2022-11-23T12:05:31.289Z,3.42
2022-11-23T12:08:08.620Z,3.28
2022-11-23T12:10:58.159Z,3.50
2022-11-23T12:13:34.132Z,3.35
2022-11-23T12:16:14.461Z,3.45
2022-11-23T12:19:21.144Z,3.00
2022-11-23T12:22:17.287Z,3.10
2022-11-23T12:25:14.701Z,3.00
2022-11-23T12:27:49.827Z,3.20
2022-11-23T12:30:47.333Z,3.20
2022-11-23T12:33:36.836Z,3.50
2022-11-23T12:36:53.658Z,3.80
2022-11-23T12:39:54.644Z,3.38
2022-11-23T12:42:45.911Z,4.50
2022-11-23T12:45:29.970Z,4.50
2022-11-23T12:48:40.299Z,3.72
2022-11-23T12:51:26.128Z,3.90
2022-11-23T12:54:14.711Z,4.53
2022-11-23T12:56:55.955Z,4.22
2022-11-23T12:59:56.287Z,5.07
2022-11-23T13:02:31.353Z,4.18
2022-11-23T13:05:26.369Z,4.95
2022-11-23T13:08:20.864Z,5.05
2022-11-23T13:11:29.662Z,5.10
2022-11-23T13:14:12.052Z,5.47
2022-11-23T13:16:57.851Z,5.03
2022-11-23T13:19:40.714Z,5.53
2022-11-23T13:22:18.990Z,5.47
2022-11-23T13:25:12.921Z,5.72
2022-11-23T13:27:49.046Z,5.53
2022-11-23T13:33:32.810Z,6.32
2022-11-23T13:38:50.355Z,6.10
2022-11-23T13:41:34.585Z,6.72
2022-11-23T13:44:23.203Z,6.13
2022-11-23T13:47:05.667Z,5.78
2022-11-23T13:49:52.716Z,5.80
2022-11-23T13:52:28.838Z,6.32
2022-11-23T13:55:11.710Z,6.35
2022-11-23T13:57:45.655Z,6.57
2022-11-23T14:00:53.236Z,6.70
2022-11-23T14:03:49.330Z,7.50
2022-11-23T14:06:42.707Z,7.28
2022-11-23T14:09:20.753Z,7.72
2022-11-23T14:12:05.156Z,7.53
2022-11-23T14:14:54.025Z,8.77
2022-11-23T14:17:44.268Z,7.95
2022-11-23T14:20:45.484Z,9.05
2022-11-23T14:23:39.155Z,8.65
2022-11-23T14:26:39.286Z,9.90
2022-11-23T14:29:20.331Z,10.75
2022-11-23T14:32:21.586Z,10.20
2022-11-23T14:35:11.796Z,12.90
2022-11-23T14:38:18.533Z,13.50
2022-11-23T14:41:15.508Z,13.40
2022-11-23T14:43:48.107Z,12.65
2022-11-23T14:46:26.971Z,13.30
2022-11-23T14:49:07.441Z,13.30
2022-11-23T14:51:43.679Z,12.98
2022-11-23T14:54:16.836Z,15.10
2022-11-23T14:56:51.092Z,15.90
2022-11-23T14:59:29.641Z,16.25
2022-11-23T15:02:15.918Z,16.42
2022-11-23T15:05:02.953Z,17.45
2022-11-23T15:07:53.209Z,17.60
2022-11-23T15:10:47.104Z,16.17
2022-11-23T15:13:21.152Z,17.25
2022-11-23T15:15:55.449Z,17.48
2022-11-23T15:18:39.646Z,16.30
2022-11-23T15:21:11.822Z,17.45
2022-11-23T15:23:50.250Z,17.90
2022-11-23T15:26:46.158Z,15.93
2022-11-23T15:29:36.683Z,15.73
2022-11-23T15:32:33.359Z,14.82
2022-11-23T15:35:11.906Z,14.73
2022-11-23T15:37:48.604Z,14.43
2022-11-23T15:40:29.518Z,13.65
2022-11-23T15:43:01.733Z,13.35
2022-11-23T15:45:58.636Z,13.35
2022-11-23T15:48:35.590Z,11.30
2022-11-23T15:51:09.520Z,11.70
2022-11-23T15:53:54.885Z,12.38
2022-11-23T15:56:35.241Z,12.90
2022-11-23T15:59:28.018Z,12.45
2022-11-23T16:02:04.231Z,13.05
2022-11-23T16:04:39.454Z,13.57
2022-11-23T16:07:23.251Z,14.45
2022-11-23T16:10:24.659Z,12.65
2022-11-23T16:13:05.798Z,13.07
2022-11-23T16:15:41.583Z,13.15
2022-11-23T16:18:13.463Z,13.95
2022-11-23T16:20:58.814Z,13.27
2022-11-23T16:23:44.278Z,14.45
2022-11-23T16:26:17.093Z,14.90
2022-11-23T16:28:53.342Z,12.10
2022-11-23T16:31:38.476Z,12.98
2022-11-23T16:34:15.955Z,13.75
2022-11-23T16:36:48.514Z,18.02
2022-11-23T16:39:20.537Z,26.08
2022-11-23T16:41:52.692Z,32.72
2022-11-23T16:44:24.616Z,23.33
2022-11-23T16:47:23.251Z,20.25
2022-11-23T16:49:55.537Z,25.10
2022-11-23T16:52:27.578Z,19.17
2022-11-23T16:54:59.506Z,15.23
2022-11-23T16:57:33.988Z,12.55
2022-11-23T17:00:08.394Z,14.05
2022-11-23T17:02:40.392Z,13.15
2022-11-23T17:05:20.161Z,12.32
2022-11-23T17:07:52.085Z,11.55
2022-11-23T17:10:24.030Z,12.75
2022-11-23T17:12:56.327Z,13.32
2022-11-23T17:15:28.229Z,11.90
2022-11-23T17:18:00.185Z,11.70
2022-11-23T17:20:32.100Z,12.00
2022-11-23T17:23:04.324Z,11.18
2022-11-23T17:25:37.329Z,10.18
2022-11-23T17:28:15.962Z,10.75
2022-11-23T17:30:48.351Z,9.73
2022-11-23T17:33:20.464Z,12.68
2022-11-23T17:35:56.584Z,11.32
2022-11-23T17:38:28.477Z,10.93
2022-11-23T17:41:00.876Z,11.32
2022-11-23T17:43:33.206Z,11.05
2022-11-23T17:46:05.940Z,9.43
2022-11-23T17:48:37.987Z,7.57
2022-11-23T17:51:12.788Z,8.75
2022-11-23T17:53:44.732Z,8.65
2022-11-23T17:56:25.561Z,6.82
2022-11-23T17:58:59.592Z,7.05
2022-11-23T18:01:31.725Z,6.95
2022-11-23T18:04:04.865Z,7.38
2022-11-23T18:06:37.145Z,7.68
2022-11-23T18:09:09.521Z,6.78
2022-11-23T18:11:41.489Z,6.80
2022-11-23T18:14:13.445Z,6.22
2022-11-23T18:16:46.395Z,6.28
2022-11-23T18:19:18.417Z,5.88
2022-11-23T18:21:50.587Z,5.95
2022-11-23T18:24:24.654Z,7.38
2022-11-23T18:26:57.208Z,5.97
2022-11-23T18:29:29.092Z,5.32
2022-11-23T18:32:04.616Z,4.57
2022-11-23T18:34:38.133Z,4.90
2022-11-23T18:37:10.692Z,4.20
2022-11-23T18:39:42.569Z,4.38
2022-11-23T18:42:15.131Z,4.40
2022-11-23T18:44:47.052Z,4.47
2022-11-23T18:47:19.274Z,4.22
2022-11-23T18:49:53.118Z,3.85
2022-11-23T18:52:25.278Z,4.07
2022-11-23T18:54:59.676Z,3.88
2022-11-23T18:57:32.153Z,3.83
2022-11-23T19:00:06.047Z,3.75
2022-11-23T19:02:38.542Z,7.18
2022-11-23T19:05:10.890Z,4.72
2022-11-23T19:07:42.848Z,4.97
2022-11-23T19:10:15.530Z,4.93
2022-11-23T19:12:47.877Z,3.42
2022-11-23T19:15:19.877Z,3.33
2022-11-23T19:17:51.921Z,4.07
2022-11-23T19:20:25.917Z,3.40
2022-11-23T19:22:57.968Z,3.53
2022-11-23T19:25:29.901Z,4.03
2022-11-23T19:28:02.812Z,24.95
2022-11-23T19:30:34.905Z,33.50
2022-11-23T19:33:06.843Z,9.82
2022-11-23T19:35:38.786Z,5.40
2022-11-23T19:38:11.552Z,6.45
2022-11-23T19:40:43.407Z,6.57
2022-11-23T19:43:15.288Z,6.35
2022-11-23T19:45:57.128Z,7.35
2022-11-23T19:48:34.867Z,7.38
2022-11-23T19:51:10.194Z,8.18
2022-11-23T19:53:43.223Z,8.88
2022-11-23T19:56:18.069Z,6.63
2022-11-23T19:58:55.088Z,6.80
2022-11-23T20:01:31.967Z,6.07
2022-11-23T20:04:09.736Z,5.35
2022-11-23T20:06:42.580Z,4.65
2022-11-23T20:09:19.505Z,5.13
2022-11-23T20:11:51.922Z,5.10
2022-11-23T20:14:23.873Z,4.30
2022-11-23T20:16:58.841Z,4.63
2022-11-23T20:19:30.913Z,5.20
2022-11-23T20:22:03.053Z,4.22
2022-11-23T20:24:36.295Z,5.28
2022-11-23T20:27:08.155Z,5.07
2022-11-23T20:29:42.422Z,5.90
2022-11-23T20:32:16.822Z,5.97
2022-11-23T20:34:49.000Z,6.10
2022-11-23T20:37:20.949Z,6.07
2022-11-23T20:39:53.791Z,5.38
2022-11-23T20:42:25.696Z,4.75
2022-11-23T20:44:58.034Z,4.97
2022-11-23T20:47:30.003Z,4.95
2022-11-23T20:50:01.932Z,4.15
2022-11-23T20:52:33.855Z,4.45
2022-11-23T20:55:06.186Z,3.78
2022-11-23T20:57:38.106Z,4.47
2022-11-23T21:00:13.798Z,3.78
2022-11-23T21:02:52.280Z,3.67
2022-11-23T21:05:24.638Z,4.30
2022-11-23T21:07:57.106Z,3.83
2022-11-23T21:10:47.665Z,3.85
2022-11-23T21:13:49.185Z,3.63
2022-11-23T21:16:22.143Z,3.65
2022-11-23T21:18:54.072Z,3.55
2022-11-23T21:21:26.575Z,3.80
2022-11-23T21:23:58.559Z,3.58
2022-11-23T21:26:30.829Z,3.65
2022-11-23T21:29:04.228Z,3.58
2022-11-23T21:31:38.076Z,3.83
2022-11-23T21:34:22.831Z,3.28
2022-11-23T21:36:55.980Z,3.20
2022-11-23T21:39:30.075Z,3.30
2022-11-23T21:42:01.884Z,3.92
2022-11-23T21:44:34.053Z,3.83
2022-11-23T21:47:06.784Z,5.88
2022-11-23T21:49:38.792Z,4.75
2022-11-23T21:52:10.676Z,3.20
2022-11-23T21:54:48.602Z,3.15
2022-11-23T21:57:20.924Z,3.40
2022-11-23T21:59:53.932Z,3.60
2022-11-23T22:02:25.909Z,3.72
2022-11-23T22:04:57.813Z,3.28
2022-11-23T22:07:29.693Z,3.45
2022-11-23T22:10:01.663Z,3.15
2022-11-23T22:12:33.490Z,2.97
2022-11-23T22:15:05.764Z,3.40
2022-11-23T22:17:37.717Z,3.38
2022-11-23T22:20:10.374Z,4.00
2022-11-23T22:22:42.322Z,4.50
2022-11-23T22:25:14.220Z,3.40
2022-11-23T22:27:46.148Z,3.70
2022-11-23T22:30:18.228Z,3.78
2022-11-23T22:32:50.064Z,3.45
2022-11-23T22:35:21.885Z,3.42
2022-11-23T22:37:54.990Z,3.17
2022-11-23T22:40:32.655Z,3.40
2022-11-23T22:43:04.594Z,3.35
2022-11-23T22:45:36.524Z,3.13
2022-11-23T22:48:08.384Z,3.45
2022-11-23T22:50:40.251Z,3.00
2022-11-23T22:53:12.141Z,3.80
2022-11-23T22:55:43.997Z,3.35
2022-11-23T22:58:15.962Z,3.13
2022-11-23T23:00:47.808Z,3.75
2022-11-23T23:03:19.800Z,3.25
2022-11-23T23:05:55.943Z,3.10
2022-11-23T23:08:28.549Z,3.50
2022-11-23T23:11:05.363Z,3.10
2022-11-23T23:13:37.631Z,3.05
2022-11-23T23:16:14.113Z,4.78
2022-11-23T23:18:46.337Z,3.50
2022-11-23T23:21:20.670Z,3.60
2022-11-23T23:23:55.210Z,3.38
2022-11-23T23:26:28.637Z,3.45
2022-11-23T23:29:00.942Z,3.17
2022-11-23T23:31:32.967Z,3.17
2022-11-23T23:34:04.888Z,3.00
2022-11-23T23:36:37.210Z,3.33
2022-11-23T23:39:10.086Z,3.35
2022-11-23T23:41:41.944Z,3.00
2022-11-23T23:44:13.827Z,2.95
2022-11-23T23:46:45.713Z,3.40
2022-11-23T23:49:17.578Z,3.03
2022-11-23T23:51:51.678Z,3.13
2022-11-23T23:54:23.944Z,3.33
2022-11-23T23:56:55.827Z,3.33
2022-11-23T23:59:27.698Z,3.08
